createdAt,value
2022-09-24T00:00:14.397Z,100.00
2022-09-24T00:03:22.963Z,100.00
2022-09-24T00:06:31.054Z,100.00
2022-09-24T00:09:36.970Z,100.00
2022-09-24T00:12:43.371Z,100.00
2022-09-24T00:15:51.680Z,100.00
2022-09-24T00:19:00.566Z,100.00
2022-09-24T00:22:06.817Z,100.00
2022-09-24T00:25:30.888Z,100.00
2022-09-24T00:28:37.221Z,100.00
2022-09-24T00:31:43.508Z,100.00
2022-09-24T00:34:53.323Z,100.00
2022-09-24T00:37:59.886Z,100.00
2022-09-24T00:41:06.452Z,100.00
2022-09-24T00:44:55.646Z,100.00
2022-09-24T00:48:01.792Z,100.00
2022-09-24T00:51:11.045Z,100.00
2022-09-24T00:54:20.981Z,100.00
2022-09-24T00:57:28.402Z,100.00
2022-09-24T01:00:35.406Z,100.00
2022-09-24T01:03:43.285Z,100.00
2022-09-24T01:06:51.369Z,100.00
2022-09-24T01:09:58.051Z,100.00
2022-09-24T01:13:15.231Z,100.00
2022-09-24T01:16:29.662Z,100.00
2022-09-24T01:19:54.515Z,100.00
2022-09-24T01:23:23.262Z,100.00
2022-09-24T01:26:48.576Z,100.00
2022-09-24T01:30:05.394Z,100.00
2022-09-24T01:33:17.420Z,100.00
2022-09-24T01:36:24.985Z,100.00
2022-09-24T01:39:33.195Z,100.00
2022-09-24T01:42:43.992Z,100.00
2022-09-24T01:45:52.343Z,100.00
2022-09-24T01:48:58.571Z,100.00
2022-09-24T01:52:11.896Z,100.00
2022-09-24T01:55:21.552Z,100.00
2022-09-24T01:58:33.085Z,100.00
2022-09-24T02:01:48.703Z,100.00
2022-09-24T02:05:00.864Z,100.00
2022-09-24T02:08:10.819Z,100.00
2022-09-24T02:11:21.896Z,100.00
2022-09-24T02:14:32.907Z,100.00
2022-09-24T02:17:45.352Z,100.00
2022-09-24T02:20:52.917Z,100.00
2022-09-24T02:24:04.500Z,100.00
2022-09-24T02:27:10.702Z,100.00
2022-09-24T02:30:17.478Z,100.00
2022-09-24T02:33:59.688Z,100.00
2022-09-24T02:37:08.715Z,100.00
2022-09-24T02:40:16.023Z,100.00
2022-09-24T02:43:22.559Z,100.00
2022-09-24T02:46:28.992Z,100.00
2022-09-24T02:49:36.597Z,100.00
2022-09-24T02:52:42.926Z,100.00
2022-09-24T02:55:49.124Z,100.00
2022-09-24T02:58:55.630Z,100.00
2022-09-24T03:02:01.879Z,100.00
2022-09-24T03:05:10.465Z,100.00
2022-09-24T03:08:16.651Z,100.00
2022-09-24T03:11:22.992Z,100.00
2022-09-24T03:14:29.435Z,100.00
2022-09-24T03:17:35.832Z,100.00
2022-09-24T03:20:43.596Z,100.00
2022-09-24T03:23:49.772Z,100.00
2022-09-24T03:26:56.186Z,100.00
2022-09-24T03:30:20.277Z,100.00
2022-09-24T03:33:26.505Z,100.00
2022-09-24T03:36:34.164Z,100.00
2022-09-24T03:39:40.477Z,100.00
2022-09-24T03:42:46.807Z,100.00
2022-09-24T03:45:53.434Z,100.00
2022-09-24T03:49:00.746Z,100.00
2022-09-24T03:52:08.394Z,100.00
2022-09-24T03:55:14.668Z,100.00
2022-09-24T03:58:20.594Z,100.00
2022-09-24T04:01:27.184Z,100.00
2022-09-24T04:04:33.483Z,100.00
2022-09-24T04:07:41.843Z,100.00
2022-09-24T04:10:48.101Z,100.00
2022-09-24T04:13:54.637Z,100.00
2022-09-24T04:17:01.017Z,100.00
2022-09-24T04:20:08.004Z,100.00
2022-09-24T04:23:15.917Z,100.00
2022-09-24T04:26:21.812Z,100.00
2022-09-24T04:29:28.304Z,100.00
2022-09-24T04:32:34.846Z,100.00
2022-09-24T04:35:41.260Z,100.00
2022-09-24T04:38:49.142Z,100.00
2022-09-24T04:41:55.470Z,100.00
2022-09-24T04:45:03.167Z,100.00
2022-09-24T04:48:09.268Z,100.00
2022-09-24T04:51:15.827Z,100.00
2022-09-24T04:54:23.420Z,100.00
2022-09-24T04:57:36.066Z,100.00
2022-09-24T05:00:43.382Z,100.00
2022-09-24T05:03:49.380Z,100.00
2022-09-24T05:06:55.845Z,100.00
2022-09-24T05:10:04.996Z,100.00
2022-09-24T05:13:11.637Z,100.00
2022-09-24T05:16:17.974Z,100.00
2022-09-24T05:19:24.425Z,100.00
2022-09-24T05:22:31.707Z,100.00
2022-09-24T05:25:59.551Z,100.00
2022-09-24T05:29:04.827Z,100.00
2022-09-24T05:32:12.985Z,100.00
2022-09-24T05:35:20.062Z,100.00
2022-09-24T05:38:26.192Z,100.00
2022-09-24T05:41:34.053Z,100.00
2022-09-24T05:44:40.219Z,100.00
2022-09-24T05:47:47.044Z,100.00
2022-09-24T05:50:55.635Z,100.00
2022-09-24T05:54:02.109Z,100.00
2022-09-24T05:57:09.961Z,100.00
2022-09-24T06:00:16.727Z,100.00
2022-09-24T06:03:22.846Z,100.00
2022-09-24T06:06:29.862Z,100.00
2022-09-24T06:09:36.678Z,100.00
2022-09-24T06:12:44.043Z,100.00
2022-09-24T06:15:50.197Z,100.00
2022-09-24T06:18:55.948Z,100.00
2022-09-24T06:22:02.329Z,100.00
2022-09-24T06:25:10.193Z,100.00
2022-09-24T06:28:17.933Z,99.90
2022-09-24T06:31:24.333Z,99.69
2022-09-24T06:34:30.554Z,98.91
2022-09-24T06:37:36.504Z,94.63
2022-09-24T06:40:43.602Z,95.16
2022-09-24T06:43:51.239Z,96.85
2022-09-24T06:46:58.121Z,99.46
2022-09-24T06:50:04.393Z,95.76
2022-09-24T06:53:12.007Z,92.36
2022-09-24T06:56:18.452Z,94.02
2022-09-24T06:59:26.030Z,92.80
2022-09-24T07:02:32.665Z,89.82
2022-09-24T07:05:43.406Z,91.86
2022-09-24T07:08:52.451Z,90.55
2022-09-24T07:12:01.645Z,89.40
2022-09-24T07:15:10.903Z,88.87
2022-09-24T07:18:18.464Z,83.30
2022-09-24T07:21:24.609Z,84.32
2022-09-24T07:24:30.951Z,82.82
2022-09-24T07:27:37.357Z,79.09
2022-09-24T07:30:45.209Z,76.80
2022-09-24T07:33:51.890Z,76.88
2022-09-24T07:36:58.923Z,72.73
2022-09-24T07:40:05.867Z,72.86
2022-09-24T07:43:14.321Z,72.33
2022-09-24T07:46:21.981Z,69.63
2022-09-24T07:49:32.304Z,71.16
2022-09-24T07:52:38.581Z,68.55
2022-09-24T07:55:45.606Z,66.71
2022-09-24T07:58:52.113Z,61.96
2022-09-24T08:01:59.834Z,61.07
2022-09-24T08:05:07.040Z,59.80
2022-09-24T08:08:13.246Z,60.05
2022-09-24T08:11:20.561Z,58.38
2022-09-24T08:14:26.815Z,58.11
2022-09-24T08:17:34.778Z,56.37
2022-09-24T08:20:41.257Z,55.61
2022-09-24T08:23:47.836Z,56.93
2022-09-24T08:26:54.386Z,53.85
2022-09-24T08:30:00.764Z,53.16
2022-09-24T08:33:08.388Z,51.60
2022-09-24T08:36:15.030Z,51.86
2022-09-24T08:39:21.187Z,51.60
2022-09-24T08:42:36.881Z,52.28
2022-09-24T08:46:07.085Z,51.70
2022-09-24T08:49:18.615Z,52.50
2022-09-24T08:52:37.731Z,49.90
2022-09-24T08:55:48.363Z,49.31
2022-09-24T08:58:59.797Z,48.55
2022-09-24T09:02:36.186Z,50.26
2022-09-24T09:05:57.858Z,46.95
2022-09-24T09:09:12.576Z,45.27
2022-09-24T09:12:24.807Z,46.01
2022-09-24T09:15:35.275Z,47.33
2022-09-24T09:18:46.188Z,45.82
2022-09-24T09:21:58.539Z,45.22
2022-09-24T09:25:18.493Z,47.16
2022-09-24T09:28:24.623Z,46.26
2022-09-24T09:31:44.438Z,44.22
2022-09-24T09:35:01.114Z,43.10
2022-09-24T09:38:20.751Z,40.51
2022-09-24T09:41:36.165Z,39.94
2022-09-24T09:44:44.825Z,40.16
2022-09-24T09:47:55.898Z,40.86
2022-09-24T09:51:06.207Z,39.46
2022-09-24T09:54:13.971Z,37.91
2022-09-24T09:57:23.326Z,38.32
2022-09-24T10:00:35.255Z,38.12
2022-09-24T10:03:50.156Z,39.01
2022-09-24T10:07:06.030Z,38.55
2022-09-24T10:10:20.972Z,37.71
2022-09-24T10:13:28.765Z,36.31
2022-09-24T10:16:40.610Z,34.69
2022-09-24T10:19:50.995Z,34.59
2022-09-24T10:23:00.434Z,34.19
2022-09-24T10:26:08.819Z,35.25
2022-09-24T10:29:35.944Z,34.42
2022-09-24T10:32:42.739Z,33.87
2022-09-24T10:35:49.515Z,33.83
2022-09-24T10:39:04.587Z,33.36
2022-09-24T10:42:25.269Z,32.91
2022-09-24T10:45:58.296Z,34.17
2022-09-24T10:49:16.375Z,32.76
2022-09-24T10:52:40.647Z,32.36
2022-09-24T10:55:57.283Z,31.19
2022-09-24T10:59:23.735Z,30.46
2022-09-24T11:03:02.106Z,33.02
2022-09-24T11:06:19.459Z,32.76
2022-09-24T11:09:38.889Z,33.43
2022-09-24T11:12:54.004Z,32.73
2022-09-24T11:16:21.127Z,35.53
2022-09-24T11:19:52.000Z,33.69
2022-09-24T11:23:24.667Z,32.69
2022-09-24T11:26:39.655Z,30.97
2022-09-24T11:30:04.014Z,31.72
2022-09-24T11:33:26.385Z,31.82
2022-09-24T11:36:47.307Z,31.57
2022-09-24T11:40:10.978Z,30.92
2022-09-24T11:43:42.311Z,32.33
2022-09-24T11:47:04.142Z,33.57
2022-09-24T11:50:34.033Z,31.73
2022-09-24T11:53:44.931Z,31.33
2022-09-24T11:56:57.946Z,32.67
2022-09-24T12:00:09.774Z,32.43
2022-09-24T12:03:25.891Z,31.67
2022-09-24T12:06:37.851Z,32.17
2022-09-24T12:09:49.398Z,31.82
2022-09-24T12:13:04.307Z,33.02
2022-09-24T12:16:14.724Z,32.45
2022-09-24T12:19:25.608Z,32.98
2022-09-24T12:22:37.004Z,31.88
2022-09-24T12:25:46.596Z,32.97
2022-09-24T12:29:17.596Z,32.56
2022-09-24T12:32:48.871Z,33.00
2022-09-24T12:36:04.605Z,31.68
2022-09-24T12:39:16.688Z,31.28
2022-09-24T12:42:26.119Z,31.39
2022-09-24T12:45:34.269Z,33.40
2022-09-24T12:48:41.248Z,33.39
2022-09-24T12:51:47.968Z,31.00
2022-09-24T12:55:02.553Z,31.60
2022-09-24T12:58:29.907Z,31.67
2022-09-24T13:01:36.569Z,33.52
2022-09-24T13:04:46.366Z,32.43
2022-09-24T13:08:01.598Z,32.83
2022-09-24T13:11:31.174Z,33.01
2022-09-24T13:14:37.676Z,31.63
2022-09-24T13:17:45.035Z,30.42
2022-09-24T13:21:07.692Z,31.10
2022-09-24T13:24:30.923Z,32.43
2022-09-24T13:27:41.391Z,33.09
2022-09-24T13:30:53.220Z,32.92
2022-09-24T13:34:04.054Z,31.91
2022-09-24T13:37:20.148Z,32.92
2022-09-24T13:40:30.082Z,32.07
2022-09-24T13:43:48.591Z,31.30
2022-09-24T13:47:00.622Z,30.21
2022-09-24T13:50:16.292Z,30.69
2022-09-24T13:53:30.039Z,32.30
2022-09-24T13:56:36.298Z,30.65
2022-09-24T13:59:43.951Z,31.09
2022-09-24T14:02:58.056Z,31.59
2022-09-24T14:06:12.705Z,30.39
2022-09-24T14:09:31.681Z,31.39
2022-09-24T14:12:38.064Z,32.55
2022-09-24T14:15:55.295Z,32.68
2022-09-24T14:19:04.452Z,32.56
2022-09-24T14:22:16.201Z,32.43
2022-09-24T14:25:29.160Z,32.27
2022-09-24T14:28:36.320Z,34.22
2022-09-24T14:31:50.380Z,33.85
2022-09-24T14:34:59.679Z,33.32
2022-09-24T14:38:09.635Z,34.82
2022-09-24T14:41:19.166Z,34.59
2022-09-24T14:44:28.241Z,35.83
2022-09-24T14:47:37.720Z,36.25
2022-09-24T14:50:43.927Z,36.75
2022-09-24T14:53:59.520Z,36.85
2022-09-24T14:57:13.556Z,39.00
2022-09-24T15:00:25.250Z,40.08
2022-09-24T15:03:40.330Z,41.76
2022-09-24T15:06:49.136Z,40.73
2022-09-24T15:09:57.715Z,41.67
2022-09-24T15:13:15.498Z,42.66
2022-09-24T15:16:28.879Z,43.55
2022-09-24T15:19:37.321Z,43.92
2022-09-24T15:22:43.623Z,45.55
2022-09-24T15:25:50.708Z,47.08
2022-09-24T15:28:58.668Z,50.62
2022-09-24T15:32:17.344Z,48.91
2022-09-24T15:35:25.178Z,49.61
2022-09-24T15:38:31.676Z,51.19
2022-09-24T15:41:40.308Z,52.25
2022-09-24T15:44:47.680Z,52.43
2022-09-24T15:47:54.997Z,53.56
2022-09-24T15:51:10.133Z,54.78
2022-09-24T15:54:18.018Z,57.39
2022-09-24T15:57:24.424Z,58.17
2022-09-24T16:00:30.950Z,56.77
2022-09-24T16:03:37.384Z,55.97
2022-09-24T16:06:45.171Z,58.50
2022-09-24T16:09:51.503Z,61.45
2022-09-24T16:12:57.892Z,60.90
2022-09-24T16:16:07.005Z,58.73
2022-09-24T16:19:13.200Z,59.58
2022-09-24T16:22:20.914Z,58.42
2022-09-24T16:25:28.171Z,61.88
2022-09-24T16:28:34.378Z,64.70
2022-09-24T16:31:40.686Z,63.50
2022-09-24T16:34:46.909Z,64.41
2022-09-24T16:37:55.037Z,64.30
2022-09-24T16:41:01.385Z,64.33
2022-09-24T16:44:07.839Z,65.21
2022-09-24T16:47:16.409Z,65.49
2022-09-24T16:50:23.795Z,64.73
2022-09-24T16:53:31.514Z,64.06
2022-09-24T16:56:38.768Z,66.17
2022-09-24T16:59:44.843Z,67.35
2022-09-24T17:02:50.949Z,67.89
2022-09-24T17:05:57.300Z,68.45
2022-09-24T17:09:22.767Z,67.65
2022-09-24T17:12:28.954Z,68.04
2022-09-24T17:15:35.730Z,65.30
2022-09-24T17:18:41.953Z,64.57
2022-09-24T17:21:50.331Z,67.39
2022-09-24T17:24:58.422Z,69.68
2022-09-24T17:28:04.452Z,72.35
2022-09-24T17:31:12.642Z,71.89
2022-09-24T17:34:19.426Z,69.01
2022-09-24T17:37:27.428Z,65.73
2022-09-24T17:40:35.184Z,70.45
2022-09-24T17:43:42.764Z,76.23
2022-09-24T17:46:49.187Z,70.43
2022-09-24T17:49:55.784Z,67.63
2022-09-24T17:53:03.926Z,65.43
2022-09-24T17:56:13.804Z,73.44
2022-09-24T17:59:25.575Z,79.67
2022-09-24T18:02:32.839Z,82.18
2022-09-24T18:05:39.245Z,82.50
2022-09-24T18:08:46.781Z,83.30
2022-09-24T18:11:54.498Z,86.17
2022-09-24T18:15:00.412Z,88.44
2022-09-24T18:18:07.060Z,88.55
2022-09-24T18:21:15.449Z,91.63
2022-09-24T18:24:23.054Z,93.83
2022-09-24T18:27:31.848Z,95.04
2022-09-24T18:30:38.539Z,95.53
2022-09-24T18:33:46.630Z,93.96
2022-09-24T18:36:52.736Z,95.60
2022-09-24T18:39:58.713Z,96.95
2022-09-24T18:43:06.517Z,96.26
2022-09-24T18:46:14.624Z,94.40
2022-09-24T18:49:21.291Z,96.52
2022-09-24T18:52:28.973Z,96.76
2022-09-24T18:55:40.733Z,100.00
2022-09-24T18:58:48.326Z,100.00
2022-09-24T19:01:54.544Z,97.82
2022-09-24T19:05:01.000Z,100.00
2022-09-24T19:08:07.710Z,98.49
2022-09-24T19:11:16.335Z,99.26
2022-09-24T19:14:24.893Z,100.00
2022-09-24T19:17:31.251Z,99.52
2022-09-24T19:20:38.539Z,100.00
2022-09-24T19:23:47.579Z,100.00
2022-09-24T19:26:54.274Z,100.00
2022-09-24T19:30:01.794Z,100.00
2022-09-24T19:33:08.701Z,100.00
2022-09-24T19:36:15.758Z,98.11
2022-09-24T19:39:22.319Z,100.00
2022-09-24T19:42:28.320Z,100.00
2022-09-24T19:45:36.531Z,98.78
2022-09-24T19:48:44.858Z,100.00
2022-09-24T19:51:51.342Z,100.00
2022-09-24T19:54:57.729Z,100.00
2022-09-24T19:58:04.152Z,100.00
2022-09-24T20:01:16.867Z,100.00
2022-09-24T20:04:24.752Z,100.00
2022-09-24T20:07:30.858Z,100.00
2022-09-24T20:10:37.724Z,100.00
2022-09-24T20:13:46.327Z,100.00
2022-09-24T20:16:54.000Z,100.00
2022-09-24T20:20:01.017Z,100.00
2022-09-24T20:23:08.330Z,100.00
2022-09-24T20:26:35.414Z,100.00
2022-09-24T20:29:43.639Z,100.00
2022-09-24T20:32:51.558Z,100.00
2022-09-24T20:36:03.749Z,100.00
2022-09-24T20:39:10.103Z,100.00
2022-09-24T20:42:16.232Z,100.00
2022-09-24T20:45:22.744Z,100.00
2022-09-24T20:48:32.748Z,100.00
2022-09-24T20:51:38.920Z,100.00
2022-09-24T20:55:02.454Z,100.00
2022-09-24T20:58:09.233Z,100.00
2022-09-24T21:01:15.909Z,100.00
2022-09-24T21:04:37.098Z,100.00
2022-09-24T21:07:43.879Z,100.00
2022-09-24T21:10:50.011Z,100.00
2022-09-24T21:13:58.482Z,100.00
2022-09-24T21:17:06.128Z,100.00
2022-09-24T21:20:13.771Z,100.00
2022-09-24T21:23:22.088Z,100.00
2022-09-24T21:26:30.128Z,100.00
2022-09-24T21:29:36.118Z,100.00
2022-09-24T21:32:42.675Z,100.00
2022-09-24T21:35:50.408Z,100.00
2022-09-24T21:38:58.287Z,100.00
2022-09-24T21:42:05.476Z,100.00
2022-09-24T21:45:13.833Z,100.00
2022-09-24T21:48:20.820Z,100.00
2022-09-24T21:51:30.314Z,100.00
2022-09-24T21:54:36.708Z,100.00
2022-09-24T21:57:42.877Z,100.00
2022-09-24T22:00:49.273Z,100.00
2022-09-24T22:03:56.664Z,100.00
2022-09-24T22:07:04.067Z,100.00
2022-09-24T22:10:11.249Z,100.00
2022-09-24T22:13:18.039Z,100.00
2022-09-24T22:16:24.952Z,100.00
2022-09-24T22:19:31.323Z,100.00
2022-09-24T22:22:38.776Z,100.00
2022-09-24T22:25:46.181Z,100.00
2022-09-24T22:28:52.223Z,100.00
2022-09-24T22:31:58.758Z,100.00
2022-09-24T22:35:22.373Z,100.00
2022-09-24T22:38:29.769Z,100.00
2022-09-24T22:41:38.810Z,100.00
2022-09-24T22:44:44.801Z,100.00
2022-09-24T22:47:51.086Z,100.00
2022-09-24T22:50:57.671Z,100.00
2022-09-24T22:54:05.465Z,100.00
2022-09-24T22:57:11.666Z,100.00
2022-09-24T23:00:18.350Z,100.00
2022-09-24T23:03:24.924Z,100.00
2022-09-24T23:06:33.953Z,100.00
2022-09-24T23:09:41.630Z,100.00
2022-09-24T23:12:48.028Z,100.00
2022-09-24T23:15:54.865Z,100.00
2022-09-24T23:19:02.856Z,100.00
2022-09-24T23:22:09.183Z,100.00
2022-09-24T23:25:17.794Z,100.00
2022-09-24T23:28:24.375Z,100.00
2022-09-24T23:31:33.004Z,100.00
2022-09-24T23:34:42.285Z,100.00
2022-09-24T23:37:48.588Z,100.00
2022-09-24T23:40:56.995Z,100.00
2022-09-24T23:44:03.621Z,100.00
2022-09-24T23:47:10.264Z,100.00
2022-09-24T23:50:16.640Z,100.00
2022-09-24T23:53:22.986Z,100.00
2022-09-24T23:56:30.885Z,100.00
2022-09-24T23:59:37.056Z,100.00
